sensor_id;sensor_type;location;lat;lon;timestamp;temperature;humidity
21495;DHT22;10909;53.590;10.054;2023-07-13T00:00:26;21.10;71.10
21495;DHT22;10909;53.590;10.054;2023-07-13T00:03:02;21.10;71.00
21495;DHT22;10909;53.590;10.054;2023-07-13T00:05:33;21.10;71.10
21495;DHT22;10909;53.590;10.054;2023-07-13T00:10:32;21.00;71.00
21495;DHT22;10909;53.590;10.054;2023-07-13T00:15:29;21.00;71.10
21495;DHT22;10909;53.590;10.054;2023-07-13T00:17:57;20.90;71.10
21495;DHT22;10909;53.590;10.054;2023-07-13T00:20:27;20.90;71.10
21495;DHT22;10909;53.590;10.054;2023-07-13T00:22:55;20.80;71.10
21495;DHT22;10909;53.590;10.054;2023-07-13T00:25:26;20.80;71.10
21495;DHT22;10909;53.590;10.054;2023-07-13T00:30:24;20.70;71.30
21495;DHT22;10909;53.590;10.054;2023-07-13T00:35:25;20.70;71.50
21495;DHT22;10909;53.590;10.054;2023-07-13T00:40:24;20.60;71.60
21495;DHT22;10909;53.590;10.054;2023-07-13T00:47:49;20.50;71.80
21495;DHT22;10909;53.590;10.054;2023-07-13T00:50:21;20.50;71.90
21495;DHT22;10909;53.590;10.054;2023-07-13T00:52:52;20.50;72.00
21495;DHT22;10909;53.590;10.054;2023-07-13T00:55:29;20.40;72.00
21495;DHT22;10909;53.590;10.054;2023-07-13T00:57:56;20.40;72.10
21495;DHT22;10909;53.590;10.054;2023-07-13T01:00:24;20.40;72.20
21495;DHT22;10909;53.590;10.054;2023-07-13T01:02:57;20.30;72.20
21495;DHT22;10909;53.590;10.054;2023-07-13T01:05:27;20.30;72.50
21495;DHT22;10909;53.590;10.054;2023-07-13T01:07:56;20.30;72.50
21495;DHT22;10909;53.590;10.054;2023-07-13T01:10:29;20.20;72.60
21495;DHT22;10909;53.590;10.054;2023-07-13T01:13:12;20.20;72.70
21495;DHT22;10909;53.590;10.054;2023-07-13T01:18:29;20.20;72.80
21495;DHT22;10909;53.590;10.054;2023-07-13T01:21:02;20.20;73.10
21495;DHT22;10909;53.590;10.054;2023-07-13T01:23:36;20.20;73.20
21495;DHT22;10909;53.590;10.054;2023-07-13T01:26:15;20.10;73.10
21495;DHT22;10909;53.590;10.054;2023-07-13T01:28:44;20.10;73.30
21495;DHT22;10909;53.590;10.054;2023-07-13T01:31:13;20.10;74.10
21495;DHT22;10909;53.590;10.054;2023-07-13T01:33:46;20.10;73.50
21495;DHT22;10909;53.590;10.054;2023-07-13T01:36:22;20.00;73.60
21495;DHT22;10909;53.590;10.054;2023-07-13T01:41:30;20.00;73.80
21495;DHT22;10909;53.590;10.054;2023-07-13T01:43:58;20.00;73.70
21495;DHT22;10909;53.590;10.054;2023-07-13T01:46:33;20.00;73.90
21495;DHT22;10909;53.590;10.054;2023-07-13T01:49:13;19.90;73.90
21495;DHT22;10909;53.590;10.054;2023-07-13T01:51:52;19.90;74.20
21495;DHT22;10909;53.590;10.054;2023-07-13T01:54:43;19.90;74.30
21495;DHT22;10909;53.590;10.054;2023-07-13T01:57:15;19.80;74.10
21495;DHT22;10909;53.590;10.054;2023-07-13T01:59:48;19.80;74.20
21495;DHT22;10909;53.590;10.054;2023-07-13T02:02:29;19.80;74.30
21495;DHT22;10909;53.590;10.054;2023-07-13T02:05:01;19.80;74.40
21495;DHT22;10909;53.590;10.054;2023-07-13T02:07:33;19.70;75.20
21495;DHT22;10909;53.590;10.054;2023-07-13T02:10:11;19.70;74.60
21495;DHT22;10909;53.590;10.054;2023-07-13T02:12:43;19.80;74.80
21495;DHT22;10909;53.590;10.054;2023-07-13T02:15:24;19.70;74.70
21495;DHT22;10909;53.590;10.054;2023-07-13T02:20:30;19.60;74.80
21495;DHT22;10909;53.590;10.054;2023-07-13T02:25:55;19.60;75.30
21495;DHT22;10909;53.590;10.054;2023-07-13T02:28:22;19.50;75.00
21495;DHT22;10909;53.590;10.054;2023-07-13T02:30:50;19.50;75.10
21495;DHT22;10909;53.590;10.054;2023-07-13T02:33:26;19.50;75.20
21495;DHT22;10909;53.590;10.054;2023-07-13T02:38:33;19.50;75.70
21495;DHT22;10909;53.590;10.054;2023-07-13T02:43:31;19.50;75.60
21495;DHT22;10909;53.590;10.054;2023-07-13T02:48:30;19.40;75.70
21495;DHT22;10909;53.590;10.054;2023-07-13T02:53:43;19.40;75.90
21495;DHT22;10909;53.590;10.054;2023-07-13T02:56:23;19.40;75.70
21495;DHT22;10909;53.590;10.054;2023-07-13T03:01:31;19.30;75.80
21495;DHT22;10909;53.590;10.054;2023-07-13T03:06:32;19.30;76.00
21495;DHT22;10909;53.590;10.054;2023-07-13T03:09:00;19.30;76.00
21495;DHT22;10909;53.590;10.054;2023-07-13T03:11:28;19.20;76.00
21495;DHT22;10909;53.590;10.054;2023-07-13T03:14:02;19.20;76.00
21495;DHT22;10909;53.590;10.054;2023-07-13T03:16:30;19.20;76.10
21495;DHT22;10909;53.590;10.054;2023-07-13T03:18:58;19.20;76.10
21495;DHT22;10909;53.590;10.054;2023-07-13T03:21:28;19.20;76.10
21495;DHT22;10909;53.590;10.054;2023-07-13T03:23:59;19.20;76.10
21495;DHT22;10909;53.590;10.054;2023-07-13T03:26:31;19.20;76.20
21495;DHT22;10909;53.590;10.054;2023-07-13T03:29:03;19.20;76.10
21495;DHT22;10909;53.590;10.054;2023-07-13T03:31:33;19.10;76.10
21495;DHT22;10909;53.590;10.054;2023-07-13T03:34:12;19.20;76.20
21495;DHT22;10909;53.590;10.054;2023-07-13T03:36:43;19.20;76.10
21495;DHT22;10909;53.590;10.054;2023-07-13T03:39:14;19.20;76.20
21495;DHT22;10909;53.590;10.054;2023-07-13T03:44:16;19.20;76.10
21495;DHT22;10909;53.590;10.054;2023-07-13T03:46:43;19.10;76.00
21495;DHT22;10909;53.590;10.054;2023-07-13T03:49:11;19.10;76.00
21495;DHT22;10909;53.590;10.054;2023-07-13T03:51:46;19.20;76.10
21495;DHT22;10909;53.590;10.054;2023-07-13T03:56:50;19.10;76.10
21495;DHT22;10909;53.590;10.054;2023-07-13T04:01:52;19.10;76.10
21495;DHT22;10909;53.590;10.054;2023-07-13T04:04:32;19.20;76.20
21495;DHT22;10909;53.590;10.054;2023-07-13T04:07:14;19.20;76.30
21495;DHT22;10909;53.590;10.054;2023-07-13T04:09:54;19.20;76.20
21495;DHT22;10909;53.590;10.054;2023-07-13T04:12:26;19.20;76.10
21495;DHT22;10909;53.590;10.054;2023-07-13T04:15:02;19.10;76.10
21495;DHT22;10909;53.590;10.054;2023-07-13T04:17:39;19.20;76.10
21495;DHT22;10909;53.590;10.054;2023-07-13T04:20:28;19.20;76.00
21495;DHT22;10909;53.590;10.054;2023-07-13T04:23:05;19.20;75.90
21495;DHT22;10909;53.590;10.054;2023-07-13T04:25:43;19.20;75.90
21495;DHT22;10909;53.590;10.054;2023-07-13T04:28:13;19.30;75.80
21495;DHT22;10909;53.590;10.054;2023-07-13T04:30:53;19.30;75.80
21495;DHT22;10909;53.590;10.054;2023-07-13T04:33:50;19.30;75.80
21495;DHT22;10909;53.590;10.054;2023-07-13T04:36:27;19.40;75.70
21495;DHT22;10909;53.590;10.054;2023-07-13T04:39:07;19.40;75.60
21495;DHT22;10909;53.590;10.054;2023-07-13T04:41:47;19.50;75.30
21495;DHT22;10909;53.590;10.054;2023-07-13T04:46:50;19.50;75.20
21495;DHT22;10909;53.590;10.054;2023-07-13T04:49:29;19.50;75.20
21495;DHT22;10909;53.590;10.054;2023-07-13T04:52:05;19.60;75.30
21495;DHT22;10909;53.590;10.054;2023-07-13T04:54:36;19.60;75.30
21495;DHT22;10909;53.590;10.054;2023-07-13T04:59:41;19.70;75.10
21495;DHT22;10909;53.590;10.054;2023-07-13T05:02:13;19.80;75.10
21495;DHT22;10909;53.590;10.054;2023-07-13T05:04:48;19.80;75.10
21495;DHT22;10909;53.590;10.054;2023-07-13T05:07:25;19.90;74.80
21495;DHT22;10909;53.590;10.054;2023-07-13T05:10:00;19.90;74.50
21495;DHT22;10909;53.590;10.054;2023-07-13T05:12:37;19.90;74.20
21495;DHT22;10909;53.590;10.054;2023-07-13T05:15:20;20.00;74.00
21495;DHT22;10909;53.590;10.054;2023-07-13T05:17:50;20.00;73.80
21495;DHT22;10909;53.590;10.054;2023-07-13T05:20:21;20.10;74.50
21495;DHT22;10909;53.590;10.054;2023-07-13T05:22:48;20.10;74.20
21495;DHT22;10909;53.590;10.054;2023-07-13T05:25:25;20.20;74.00
21495;DHT22;10909;53.590;10.054;2023-07-13T05:30:24;20.30;73.80
21495;DHT22;10909;53.590;10.054;2023-07-13T05:32:50;20.40;73.90
21495;DHT22;10909;53.590;10.054;2023-07-13T05:35:18;20.50;73.70
21495;DHT22;10909;53.590;10.054;2023-07-13T05:38:06;20.50;73.50
21495;DHT22;10909;53.590;10.054;2023-07-13T05:43:08;20.70;73.20
21495;DHT22;10909;53.590;10.054;2023-07-13T05:45:38;20.70;73.00
21495;DHT22;10909;53.590;10.054;2023-07-13T05:50:46;20.70;72.90
21495;DHT22;10909;53.590;10.054;2023-07-13T05:53:16;20.80;72.60
21495;DHT22;10909;53.590;10.054;2023-07-13T05:55:47;20.80;72.80
21495;DHT22;10909;53.590;10.054;2023-07-13T05:58:19;20.80;72.60
21495;DHT22;10909;53.590;10.054;2023-07-13T06:00:59;20.80;72.70
21495;DHT22;10909;53.590;10.054;2023-07-13T06:05:58;20.80;72.80
21495;DHT22;10909;53.590;10.054;2023-07-13T06:11:09;20.70;72.40
21495;DHT22;10909;53.590;10.054;2023-07-13T06:16:08;20.70;72.00
21495;DHT22;10909;53.590;10.054;2023-07-13T06:21:17;20.60;72.20
21495;DHT22;10909;53.590;10.054;2023-07-13T06:23:54;20.60;72.20
21495;DHT22;10909;53.590;10.054;2023-07-13T06:26:25;20.60;72.50
21495;DHT22;10909;53.590;10.054;2023-07-13T06:28:54;20.60;72.70
21495;DHT22;10909;53.590;10.054;2023-07-13T06:31:22;20.60;72.60
21495;DHT22;10909;53.590;10.054;2023-07-13T06:33:53;20.60;72.70
21495;DHT22;10909;53.590;10.054;2023-07-13T06:36:23;20.60;72.50
21495;DHT22;10909;53.590;10.054;2023-07-13T06:38:49;20.60;73.00
21495;DHT22;10909;53.590;10.054;2023-07-13T06:41:16;20.60;72.70
21495;DHT22;10909;53.590;10.054;2023-07-13T06:43:47;20.60;72.80
21495;DHT22;10909;53.590;10.054;2023-07-13T06:46:23;20.60;73.80
21495;DHT22;10909;53.590;10.054;2023-07-13T06:49:12;20.70;73.20
21495;DHT22;10909;53.590;10.054;2023-07-13T06:51:59;20.70;72.90
21495;DHT22;10909;53.590;10.054;2023-07-13T06:54:29;20.80;72.80
21495;DHT22;10909;53.590;10.054;2023-07-13T06:57:00;20.80;72.80
21495;DHT22;10909;53.590;10.054;2023-07-13T07:02:05;20.90;72.90
21495;DHT22;10909;53.590;10.054;2023-07-13T07:07:14;20.90;73.10
21495;DHT22;10909;53.590;10.054;2023-07-13T07:09:56;21.00;73.00
21495;DHT22;10909;53.590;10.054;2023-07-13T07:14:54;21.10;72.70
21495;DHT22;10909;53.590;10.054;2023-07-13T07:17:31;21.10;72.70
21495;DHT22;10909;53.590;10.054;2023-07-13T07:22:38;21.20;72.60
21495;DHT22;10909;53.590;10.054;2023-07-13T07:25:25;21.20;72.40
21495;DHT22;10909;53.590;10.054;2023-07-13T07:27:57;21.20;72.50
21495;DHT22;10909;53.590;10.054;2023-07-13T07:30:28;21.30;72.50
21495;DHT22;10909;53.590;10.054;2023-07-13T07:32:56;21.30;73.10
21495;DHT22;10909;53.590;10.054;2023-07-13T07:35:33;21.30;72.50
21495;DHT22;10909;53.590;10.054;2023-07-13T07:38:04;21.40;72.30
21495;DHT22;10909;53.590;10.054;2023-07-13T07:43:04;21.50;72.70
21495;DHT22;10909;53.590;10.054;2023-07-13T07:45:30;21.60;72.70
21495;DHT22;10909;53.590;10.054;2023-07-13T07:47:57;21.70;72.90
21495;DHT22;10909;53.590;10.054;2023-07-13T07:50:25;21.80;72.90
21495;DHT22;10909;53.590;10.054;2023-07-13T07:52:58;21.90;72.30
21495;DHT22;10909;53.590;10.054;2023-07-13T07:55:33;21.90;72.10
21495;DHT22;10909;53.590;10.054;2023-07-13T08:00:34;22.10;71.70
21495;DHT22;10909;53.590;10.054;2023-07-13T08:03:11;22.20;71.70
21495;DHT22;10909;53.590;10.054;2023-07-13T08:05:49;22.20;71.50
21495;DHT22;10909;53.590;10.054;2023-07-13T08:08:19;22.30;71.70
21495;DHT22;10909;53.590;10.054;2023-07-13T08:10:48;22.40;71.10
21495;DHT22;10909;53.590;10.054;2023-07-13T08:15:47;22.50;70.80
21495;DHT22;10909;53.590;10.054;2023-07-13T08:18:16;22.50;70.60
21495;DHT22;10909;53.590;10.054;2023-07-13T08:23:17;22.60;69.80
21495;DHT22;10909;53.590;10.054;2023-07-13T08:25:55;22.60;69.00
21495;DHT22;10909;53.590;10.054;2023-07-13T08:31:10;22.70;69.60
21495;DHT22;10909;53.590;10.054;2023-07-13T08:33:41;22.70;69.60
21495;DHT22;10909;53.590;10.054;2023-07-13T08:36:09;22.80;69.70
21495;DHT22;10909;53.590;10.054;2023-07-13T08:41:18;22.90;69.10
21495;DHT22;10909;53.590;10.054;2023-07-13T08:43:48;23.00;68.70
21495;DHT22;10909;53.590;10.054;2023-07-13T08:46:40;23.00;68.50
21495;DHT22;10909;53.590;10.054;2023-07-13T08:49:16;23.10;67.50
21495;DHT22;10909;53.590;10.054;2023-07-13T08:52:05;23.00;68.10
21495;DHT22;10909;53.590;10.054;2023-07-13T08:57:19;23.00;68.00
21495;DHT22;10909;53.590;10.054;2023-07-13T09:00:09;23.00;68.10
21495;DHT22;10909;53.590;10.054;2023-07-13T09:02:56;23.00;68.00
21495;DHT22;10909;53.590;10.054;2023-07-13T09:05:38;23.00;67.20
21495;DHT22;10909;53.590;10.054;2023-07-13T09:11:23;23.00;67.40
21495;DHT22;10909;53.590;10.054;2023-07-13T09:19:28;23.20;67.80
21495;DHT22;10909;53.590;10.054;2023-07-13T09:22:10;23.30;67.50
21495;DHT22;10909;53.590;10.054;2023-07-13T09:25:05;23.40;66.40
21495;DHT22;10909;53.590;10.054;2023-07-13T09:27:50;23.50;63.60
21495;DHT22;10909;53.590;10.054;2023-07-13T09:30:37;23.50;65.60
21495;DHT22;10909;53.590;10.054;2023-07-13T09:33:05;23.60;65.40
21495;DHT22;10909;53.590;10.054;2023-07-13T09:35:34;23.60;65.80
21495;DHT22;10909;53.590;10.054;2023-07-13T09:38:17;23.70;65.80
21495;DHT22;10909;53.590;10.054;2023-07-13T09:50:33;23.80;63.70
21495;DHT22;10909;53.590;10.054;2023-07-13T09:53:15;23.90;65.50
21495;DHT22;10909;53.590;10.054;2023-07-13T10:06:01;24.00;62.70
21495;DHT22;10909;53.590;10.054;2023-07-13T10:08:50;24.10;61.40
21495;DHT22;10909;53.590;10.054;2023-07-13T10:11:31;24.10;61.40
21495;DHT22;10909;53.590;10.054;2023-07-13T10:14:20;24.10;61.80
21495;DHT22;10909;53.590;10.054;2023-07-13T10:20:09;24.10;61.80
21495;DHT22;10909;53.590;10.054;2023-07-13T10:23:04;24.10;62.90
21495;DHT22;10909;53.590;10.054;2023-07-13T10:25:38;24.10;60.40
21495;DHT22;10909;53.590;10.054;2023-07-13T10:31:14;24.20;60.10
21495;DHT22;10909;53.590;10.054;2023-07-13T10:36:44;24.30;60.20
21495;DHT22;10909;53.590;10.054;2023-07-13T10:39:23;24.30;59.40
21495;DHT22;10909;53.590;10.054;2023-07-13T10:42:00;24.30;59.80
21495;DHT22;10909;53.590;10.054;2023-07-13T10:47:15;24.50;61.40
21495;DHT22;10909;53.590;10.054;2023-07-13T10:58:00;24.90;57.10
21495;DHT22;10909;53.590;10.054;2023-07-13T11:00:31;24.90;58.10
21495;DHT22;10909;53.590;10.054;2023-07-13T11:03:02;24.90;57.40
21495;DHT22;10909;53.590;10.054;2023-07-13T11:05:33;24.90;56.40
21495;DHT22;10909;53.590;10.054;2023-07-13T11:10:56;25.00;57.20
21495;DHT22;10909;53.590;10.054;2023-07-13T11:16:42;25.10;53.90
21495;DHT22;10909;53.590;10.054;2023-07-13T11:24:59;25.30;53.80
21495;DHT22;10909;53.590;10.054;2023-07-13T11:27:45;25.30;54.50
21495;DHT22;10909;53.590;10.054;2023-07-13T11:36:18;25.40;52.90
21495;DHT22;10909;53.590;10.054;2023-07-13T11:41:53;25.50;54.20
21495;DHT22;10909;53.590;10.054;2023-07-13T11:44:24;25.50;53.30
21495;DHT22;10909;53.590;10.054;2023-07-13T11:46:57;25.50;54.50
21495;DHT22;10909;53.590;10.054;2023-07-13T11:49:30;25.60;55.10
21495;DHT22;10909;53.590;10.054;2023-07-13T11:51:58;25.70;55.50
21495;DHT22;10909;53.590;10.054;2023-07-13T11:54:43;25.80;53.90
21495;DHT22;10909;53.590;10.054;2023-07-13T11:57:25;25.70;54.00
21495;DHT22;10909;53.590;10.054;2023-07-13T12:00:03;25.80;54.90
21495;DHT22;10909;53.590;10.054;2023-07-13T12:02:47;25.80;55.40
21495;DHT22;10909;53.590;10.054;2023-07-13T12:05:20;25.90;54.70
21495;DHT22;10909;53.590;10.054;2023-07-13T12:07:48;25.80;54.30
21495;DHT22;10909;53.590;10.054;2023-07-13T12:10:29;25.80;54.30
21495;DHT22;10909;53.590;10.054;2023-07-13T12:13:21;25.80;54.50
21495;DHT22;10909;53.590;10.054;2023-07-13T12:16:17;25.70;53.40
21495;DHT22;10909;53.590;10.054;2023-07-13T12:18:53;25.70;53.20
21495;DHT22;10909;53.590;10.054;2023-07-13T12:21:28;25.60;53.70
21495;DHT22;10909;53.590;10.054;2023-07-13T12:23:56;25.60;54.50
21495;DHT22;10909;53.590;10.054;2023-07-13T12:26:22;25.40;55.90
21495;DHT22;10909;53.590;10.054;2023-07-13T12:28:56;25.00;55.90
21495;DHT22;10909;53.590;10.054;2023-07-13T12:31:36;24.40;56.90
21495;DHT22;10909;53.590;10.054;2023-07-13T12:34:07;23.70;58.00
21495;DHT22;10909;53.590;10.054;2023-07-13T12:36:40;23.00;58.50
21495;DHT22;10909;53.590;10.054;2023-07-13T12:39:17;22.40;59.90
21495;DHT22;10909;53.590;10.054;2023-07-13T12:41:44;21.90;61.80
21495;DHT22;10909;53.590;10.054;2023-07-13T12:44:28;21.40;62.80
21495;DHT22;10909;53.590;10.054;2023-07-13T12:47:05;21.20;65.80
21495;DHT22;10909;53.590;10.054;2023-07-13T12:49:41;21.00;66.40
21495;DHT22;10909;53.590;10.054;2023-07-13T12:52:16;21.00;68.10
21495;DHT22;10909;53.590;10.054;2023-07-13T12:54:53;21.00;69.30
21495;DHT22;10909;53.590;10.054;2023-07-13T12:57:22;21.10;69.40
21495;DHT22;10909;53.590;10.054;2023-07-13T12:59:52;21.10;69.20
21495;DHT22;10909;53.590;10.054;2023-07-13T13:02:33;21.10;70.10
21495;DHT22;10909;53.590;10.054;2023-07-13T13:05:00;21.20;71.30
21495;DHT22;10909;53.590;10.054;2023-07-13T13:07:27;21.30;70.80
21495;DHT22;10909;53.590;10.054;2023-07-13T13:09:53;21.40;70.70
21495;DHT22;10909;53.590;10.054;2023-07-13T13:12:22;21.50;70.50
21495;DHT22;10909;53.590;10.054;2023-07-13T13:14:51;21.50;70.40
21495;DHT22;10909;53.590;10.054;2023-07-13T13:17:21;21.50;69.50
21495;DHT22;10909;53.590;10.054;2023-07-13T13:19:47;21.50;69.70
21495;DHT22;10909;53.590;10.054;2023-07-13T13:22:13;21.40;69.90
21495;DHT22;10909;53.590;10.054;2023-07-13T13:24:39;21.40;70.10
21495;DHT22;10909;53.590;10.054;2023-07-13T13:27:05;21.30;70.40
21495;DHT22;10909;53.590;10.054;2023-07-13T13:29:31;21.40;70.90
21495;DHT22;10909;53.590;10.054;2023-07-13T13:31:58;21.40;71.00
21495;DHT22;10909;53.590;10.054;2023-07-13T13:34:25;21.40;70.90
21495;DHT22;10909;53.590;10.054;2023-07-13T13:36:52;21.50;70.40
21495;DHT22;10909;53.590;10.054;2023-07-13T13:39:31;21.50;70.40
21495;DHT22;10909;53.590;10.054;2023-07-13T13:41:58;21.50;69.80
21495;DHT22;10909;53.590;10.054;2023-07-13T13:44:23;21.60;70.30
21495;DHT22;10909;53.590;10.054;2023-07-13T13:46:52;21.60;70.10
21495;DHT22;10909;53.590;10.054;2023-07-13T13:49:24;21.60;70.10
21495;DHT22;10909;53.590;10.054;2023-07-13T13:51:51;21.70;70.10
21495;DHT22;10909;53.590;10.054;2023-07-13T13:54:18;21.80;70.50
21495;DHT22;10909;53.590;10.054;2023-07-13T13:56:47;21.80;70.40
21495;DHT22;10909;53.590;10.054;2023-07-13T13:59:13;21.90;70.40
21495;DHT22;10909;53.590;10.054;2023-07-13T14:01:41;22.00;70.20
21495;DHT22;10909;53.590;10.054;2023-07-13T14:04:14;22.10;70.20
21495;DHT22;10909;53.590;10.054;2023-07-13T14:06:40;22.20;70.10
21495;DHT22;10909;53.590;10.054;2023-07-13T14:09:14;22.30;70.00
21495;DHT22;10909;53.590;10.054;2023-07-13T14:11:40;22.40;68.70
21495;DHT22;10909;53.590;10.054;2023-07-13T14:14:16;22.40;68.30
21495;DHT22;10909;53.590;10.054;2023-07-13T14:16:43;22.40;68.40
21495;DHT22;10909;53.590;10.054;2023-07-13T14:19:11;22.50;69.40
21495;DHT22;10909;53.590;10.054;2023-07-13T14:21:37;22.70;69.70
21495;DHT22;10909;53.590;10.054;2023-07-13T14:24:03;22.80;71.40
21495;DHT22;10909;53.590;10.054;2023-07-13T14:26:32;23.00;69.10
21495;DHT22;10909;53.590;10.054;2023-07-13T14:29:01;23.20;68.50
21495;DHT22;10909;53.590;10.054;2023-07-13T14:31:27;23.20;67.60
21495;DHT22;10909;53.590;10.054;2023-07-13T14:33:56;23.30;67.00
21495;DHT22;10909;53.590;10.054;2023-07-13T14:36:29;23.30;66.40
21495;DHT22;10909;53.590;10.054;2023-07-13T14:39:00;23.30;65.50
21495;DHT22;10909;53.590;10.054;2023-07-13T14:41:26;23.30;67.30
21495;DHT22;10909;53.590;10.054;2023-07-13T14:43:52;23.50;68.30
21495;DHT22;10909;53.590;10.054;2023-07-13T14:46:29;23.70;68.90
21495;DHT22;10909;53.590;10.054;2023-07-13T14:49:24;24.00;67.40
21495;DHT22;10909;53.590;10.054;2023-07-13T14:51:50;24.20;65.00
21495;DHT22;10909;53.590;10.054;2023-07-13T14:54:16;24.30;65.00
21495;DHT22;10909;53.590;10.054;2023-07-13T14:56:41;24.30;64.60
21495;DHT22;10909;53.590;10.054;2023-07-13T14:59:07;24.30;64.50
21495;DHT22;10909;53.590;10.054;2023-07-13T15:01:37;24.20;64.10
21495;DHT22;10909;53.590;10.054;2023-07-13T15:04:03;24.10;63.30
21495;DHT22;10909;53.590;10.054;2023-07-13T15:06:30;24.10;64.20
21495;DHT22;10909;53.590;10.054;2023-07-13T15:08:57;24.00;64.40
21495;DHT22;10909;53.590;10.054;2023-07-13T15:11:23;24.00;64.80
21495;DHT22;10909;53.590;10.054;2023-07-13T15:13:49;23.90;65.40
21495;DHT22;10909;53.590;10.054;2023-07-13T15:16:23;23.90;65.20
21495;DHT22;10909;53.590;10.054;2023-07-13T15:18:50;24.00;65.50
21495;DHT22;10909;53.590;10.054;2023-07-13T15:21:22;24.20;67.10
21495;DHT22;10909;53.590;10.054;2023-07-13T15:23:52;24.30;66.50
21495;DHT22;10909;53.590;10.054;2023-07-13T15:26:24;24.50;65.90
21495;DHT22;10909;53.590;10.054;2023-07-13T15:28:52;24.60;64.80
21495;DHT22;10909;53.590;10.054;2023-07-13T15:31:25;24.70;63.70
21495;DHT22;10909;53.590;10.054;2023-07-13T15:33:56;24.60;62.40
21495;DHT22;10909;53.590;10.054;2023-07-13T15:36:33;24.60;62.80
21495;DHT22;10909;53.590;10.054;2023-07-13T15:39:06;24.40;62.50
21495;DHT22;10909;53.590;10.054;2023-07-13T15:41:35;24.30;62.70
21495;DHT22;10909;53.590;10.054;2023-07-13T15:44:23;24.30;63.50
21495;DHT22;10909;53.590;10.054;2023-07-13T15:46:55;24.30;62.80
21495;DHT22;10909;53.590;10.054;2023-07-13T15:49:21;24.30;64.10
21495;DHT22;10909;53.590;10.054;2023-07-13T15:51:54;24.40;65.70
21495;DHT22;10909;53.590;10.054;2023-07-13T15:54:24;24.60;64.90
21495;DHT22;10909;53.590;10.054;2023-07-13T15:56:56;24.90;65.90
21495;DHT22;10909;53.590;10.054;2023-07-13T15:59:29;25.20;65.90
21495;DHT22;10909;53.590;10.054;2023-07-13T16:02:21;25.40;66.50
21495;DHT22;10909;53.590;10.054;2023-07-13T16:04:55;25.90;61.90
21495;DHT22;10909;53.590;10.054;2023-07-13T16:07:36;26.20;65.70
21495;DHT22;10909;53.590;10.054;2023-07-13T16:10:48;26.70;64.90
21495;DHT22;10909;53.590;10.054;2023-07-13T16:13:20;27.10;61.40
21495;DHT22;10909;53.590;10.054;2023-07-13T16:15:53;27.30;59.90
21495;DHT22;10909;53.590;10.054;2023-07-13T16:18:26;27.40;59.70
21495;DHT22;10909;53.590;10.054;2023-07-13T16:20:57;27.30;58.20
21495;DHT22;10909;53.590;10.054;2023-07-13T16:23:32;27.10;56.70
21495;DHT22;10909;53.590;10.054;2023-07-13T16:26:03;26.90;56.80
21495;DHT22;10909;53.590;10.054;2023-07-13T16:28:37;26.50;56.80
21495;DHT22;10909;53.590;10.054;2023-07-13T16:31:10;26.20;55.90
21495;DHT22;10909;53.590;10.054;2023-07-13T16:33:53;26.10;57.60
21495;DHT22;10909;53.590;10.054;2023-07-13T16:36:24;26.00;58.50
21495;DHT22;10909;53.590;10.054;2023-07-13T16:38:50;26.00;59.40
21495;DHT22;10909;53.590;10.054;2023-07-13T16:41:23;26.10;59.80
21495;DHT22;10909;53.590;10.054;2023-07-13T16:43:58;26.20;57.10
21495;DHT22;10909;53.590;10.054;2023-07-13T16:46:26;26.20;57.00
21495;DHT22;10909;53.590;10.054;2023-07-13T16:48:57;26.10;57.80
21495;DHT22;10909;53.590;10.054;2023-07-13T16:51:31;26.10;57.00
21495;DHT22;10909;53.590;10.054;2023-07-13T16:56:29;26.00;56.00
21495;DHT22;10909;53.590;10.054;2023-07-13T16:59:00;25.80;56.40
21495;DHT22;10909;53.590;10.054;2023-07-13T17:01:27;25.70;56.10
21495;DHT22;10909;53.590;10.054;2023-07-13T17:03:54;25.60;55.40
21495;DHT22;10909;53.590;10.054;2023-07-13T17:06:28;25.40;55.50
21495;DHT22;10909;53.590;10.054;2023-07-13T17:11:26;25.00;55.80
21495;DHT22;10909;53.590;10.054;2023-07-13T17:13:57;24.90;56.70
21495;DHT22;10909;53.590;10.054;2023-07-13T17:16:28;24.80;57.40
21495;DHT22;10909;53.590;10.054;2023-07-13T17:21:24;24.70;57.40
21495;DHT22;10909;53.590;10.054;2023-07-13T17:23:51;24.60;57.10
21495;DHT22;10909;53.590;10.054;2023-07-13T17:26:23;24.50;58.30
21495;DHT22;10909;53.590;10.054;2023-07-13T17:28:50;24.50;57.70
21495;DHT22;10909;53.590;10.054;2023-07-13T17:31:20;24.40;58.20
21495;DHT22;10909;53.590;10.054;2023-07-13T17:33:48;24.30;58.20
21495;DHT22;10909;53.590;10.054;2023-07-13T17:36:25;24.30;57.70
21495;DHT22;10909;53.590;10.054;2023-07-13T17:38:57;24.30;57.70
21495;DHT22;10909;53.590;10.054;2023-07-13T17:41:26;24.20;57.80
21495;DHT22;10909;53.590;10.054;2023-07-13T17:43:56;24.10;57.80
21495;DHT22;10909;53.590;10.054;2023-07-13T17:46:32;24.10;57.90
21495;DHT22;10909;53.590;10.054;2023-07-13T17:49:00;24.00;57.50
21495;DHT22;10909;53.590;10.054;2023-07-13T17:51:26;23.90;58.10
21495;DHT22;10909;53.590;10.054;2023-07-13T17:56:41;23.70;58.00
21495;DHT22;10909;53.590;10.054;2023-07-13T17:59:10;23.60;58.50
21495;DHT22;10909;53.590;10.054;2023-07-13T18:04:21;23.50;58.70
21495;DHT22;10909;53.590;10.054;2023-07-13T18:06:51;23.40;59.20
21495;DHT22;10909;53.590;10.054;2023-07-13T18:09:23;23.40;59.30
21495;DHT22;10909;53.590;10.054;2023-07-13T18:11:52;23.30;59.60
21495;DHT22;10909;53.590;10.054;2023-07-13T18:14:19;23.30;60.00
21495;DHT22;10909;53.590;10.054;2023-07-13T18:16:52;23.30;60.00
21495;DHT22;10909;53.590;10.054;2023-07-13T18:19:35;23.30;59.90
21495;DHT22;10909;53.590;10.054;2023-07-13T18:22:10;23.30;59.70
21495;DHT22;10909;53.590;10.054;2023-07-13T18:24:37;23.30;60.00
21495;DHT22;10909;53.590;10.054;2023-07-13T18:27:03;23.20;60.00
21495;DHT22;10909;53.590;10.054;2023-07-13T18:29:33;23.20;60.30
21495;DHT22;10909;53.590;10.054;2023-07-13T18:32:01;23.10;60.00
21495;DHT22;10909;53.590;10.054;2023-07-13T18:34:40;23.10;60.00
21495;DHT22;10909;53.590;10.054;2023-07-13T18:37:17;23.10;60.20
21495;DHT22;10909;53.590;10.054;2023-07-13T18:39:44;23.00;60.40
21495;DHT22;10909;53.590;10.054;2023-07-13T18:42:12;23.00;61.20
21495;DHT22;10909;53.590;10.054;2023-07-13T18:44:51;23.00;61.40
21495;DHT22;10909;53.590;10.054;2023-07-13T18:47:20;23.00;61.10
21495;DHT22;10909;53.590;10.054;2023-07-13T18:49:50;23.00;61.60
21495;DHT22;10909;53.590;10.054;2023-07-13T18:54:50;23.00;61.90
21495;DHT22;10909;53.590;10.054;2023-07-13T18:59:47;22.90;61.00